createdAt,value
2023-02-11T00:00:12.487Z,17.34
2023-02-11T00:00:26.486Z,17.35
2023-02-11T00:00:40.495Z,17.35
2023-02-11T00:00:54.497Z,17.34
2023-02-11T00:01:08.500Z,17.36
2023-02-11T00:01:22.481Z,17.35
2023-02-11T00:01:36.491Z,17.35
2023-02-11T00:01:50.510Z,17.34
2023-02-11T00:02:04.558Z,17.34
2023-02-11T00:02:18.581Z,17.35
2023-02-11T00:02:48.020Z,17.34
2023-02-11T00:02:59.643Z,17.34
2023-02-11T00:03:13.720Z,17.35
2023-02-11T00:03:27.788Z,17.35
2023-02-11T00:03:41.931Z,17.35
2023-02-11T00:03:55.949Z,17.34
2023-02-11T00:04:09.961Z,17.34
2023-02-11T00:04:23.955Z,17.34
2023-02-11T00:04:38.058Z,17.33
2023-02-11T00:04:52.075Z,17.33
2023-02-11T00:05:06.153Z,17.34
2023-02-11T00:05:20.150Z,17.33
2023-02-11T00:05:34.147Z,17.34
2023-02-11T00:05:48.562Z,17.32
2023-02-11T00:06:02.816Z,17.33
2023-02-11T00:06:16.812Z,17.32
2023-02-11T00:06:30.803Z,17.32
2023-02-11T00:06:44.803Z,17.32
2023-02-11T00:06:58.825Z,17.31
2023-02-11T00:07:12.811Z,17.33
2023-02-11T00:07:26.793Z,17.33
2023-02-11T00:07:54.761Z,17.33
2023-02-11T00:08:08.765Z,17.34
2023-02-11T00:08:22.778Z,17.32
2023-02-11T00:08:36.774Z,17.33
2023-02-11T00:08:50.782Z,17.32
2023-02-11T00:09:04.785Z,17.32
2023-02-11T00:09:18.786Z,17.33
2023-02-11T00:09:32.778Z,17.33
2023-02-11T00:09:46.770Z,17.33
2023-02-11T00:10:00.805Z,17.33
2023-02-11T00:10:14.804Z,17.33
2023-02-11T00:10:28.800Z,17.33
2023-02-11T00:10:42.800Z,17.33
2023-02-11T00:10:56.777Z,17.33
2023-02-11T00:11:10.772Z,17.33
2023-02-11T00:11:24.753Z,17.33
2023-02-11T00:11:38.747Z,17.32
2023-02-11T00:12:06.715Z,17.32
2023-02-11T00:12:20.702Z,17.31
2023-02-11T00:12:34.692Z,17.32
2023-02-11T00:12:48.696Z,17.31
2023-02-11T00:13:02.715Z,17.31
2023-02-11T00:13:16.697Z,17.31
2023-02-11T00:13:30.705Z,17.30
2023-02-11T00:13:44.684Z,17.31
2023-02-11T00:13:58.685Z,17.30
2023-02-11T00:14:12.667Z,17.30
2023-02-11T00:14:26.681Z,17.31
2023-02-11T00:14:40.671Z,17.31
2023-02-11T00:14:54.681Z,17.30
2023-02-11T00:15:08.693Z,17.32
2023-02-11T00:15:22.688Z,17.31
2023-02-11T00:15:36.710Z,17.30
2023-02-11T00:15:50.963Z,17.30
2023-02-11T00:16:05.101Z,17.31
2023-02-11T00:16:19.161Z,17.31
2023-02-11T00:16:33.274Z,17.31
2023-02-11T00:16:47.363Z,17.30
2023-02-11T00:17:15.372Z,17.31
2023-02-11T00:17:29.379Z,17.30
2023-02-11T00:17:43.415Z,17.30
2023-02-11T00:17:57.397Z,17.30
2023-02-11T00:18:11.386Z,17.30
2023-02-11T00:18:25.382Z,17.29
2023-02-11T00:18:39.402Z,17.30
2023-02-11T00:18:53.408Z,17.30
2023-02-11T00:19:07.434Z,17.30
2023-02-11T00:19:21.452Z,17.29
2023-02-11T00:19:35.443Z,17.29
2023-02-11T00:19:49.434Z,17.29
2023-02-11T00:20:03.456Z,17.28
2023-02-11T00:20:17.447Z,17.29
2023-02-11T00:20:31.452Z,17.29
2023-02-11T00:20:45.484Z,17.29
2023-02-11T00:20:59.490Z,17.29
2023-02-11T00:21:13.482Z,17.29
2023-02-11T00:21:27.495Z,17.29
2023-02-11T00:21:55.464Z,17.28
2023-02-11T00:22:09.460Z,17.27
2023-02-11T00:22:23.442Z,17.28
2023-02-11T00:22:37.423Z,17.28
2023-02-11T00:22:51.410Z,17.27
2023-02-11T00:23:05.410Z,17.27
2023-02-11T00:23:19.400Z,17.28
2023-02-11T00:23:33.397Z,17.27
2023-02-11T00:23:47.409Z,17.28
2023-02-11T00:24:01.400Z,17.26
2023-02-11T00:24:15.377Z,17.26
2023-02-11T00:24:29.384Z,17.27
2023-02-11T00:24:43.367Z,17.28
2023-02-11T00:24:57.358Z,17.28
2023-02-11T00:25:25.340Z,17.28
2023-02-11T00:25:39.319Z,17.27
2023-02-11T00:25:53.491Z,17.27
2023-02-11T00:26:07.508Z,17.27
2023-02-11T00:26:21.519Z,17.26
2023-02-11T00:26:35.512Z,17.26
2023-02-11T00:26:49.514Z,17.28
2023-02-11T00:27:03.494Z,17.26
2023-02-11T00:27:17.497Z,17.27
2023-02-11T00:27:31.492Z,17.27
2023-02-11T00:27:45.494Z,17.27
2023-02-11T00:27:59.524Z,17.27
2023-02-11T00:28:13.601Z,17.27
2023-02-11T00:28:27.704Z,17.28
2023-02-11T00:28:41.763Z,17.27
2023-02-11T00:28:55.752Z,17.28
2023-02-11T00:29:09.754Z,17.27
2023-02-11T00:29:23.756Z,17.27
2023-02-11T00:29:37.751Z,17.26
2023-02-11T00:30:05.720Z,17.27
2023-02-11T00:30:19.754Z,17.27
2023-02-11T00:30:33.937Z,17.28
2023-02-11T00:30:48.118Z,17.26
2023-02-11T00:31:02.230Z,17.26
2023-02-11T00:31:16.422Z,17.27
2023-02-11T00:31:30.713Z,17.27
2023-02-11T00:31:45.089Z,17.27
2023-02-11T00:31:59.292Z,17.27
2023-02-11T00:32:13.308Z,17.26
2023-02-11T00:32:27.298Z,17.27
2023-02-11T00:32:41.292Z,17.28
2023-02-11T00:32:55.275Z,17.26
2023-02-11T00:33:09.313Z,17.27
2023-02-11T00:33:23.310Z,17.27
2023-02-11T00:33:37.369Z,17.26
2023-02-11T00:33:51.400Z,17.26
2023-02-11T00:34:05.430Z,17.26
2023-02-11T00:34:19.427Z,17.25
2023-02-11T00:34:33.427Z,17.25
2023-02-11T00:34:47.411Z,17.25
2023-02-11T00:35:15.416Z,17.25
2023-02-11T00:35:29.425Z,17.25
2023-02-11T00:35:43.413Z,17.24
2023-02-11T00:35:57.407Z,17.25
2023-02-11T00:36:11.428Z,17.23
2023-02-11T00:36:25.435Z,17.24
2023-02-11T00:36:39.426Z,17.24
2023-02-11T00:36:53.423Z,17.24
2023-02-11T00:37:07.409Z,17.24
2023-02-11T00:37:21.405Z,17.23
2023-02-11T00:37:35.401Z,17.23
2023-02-11T00:37:49.399Z,17.23
2023-02-11T00:38:03.388Z,17.22
2023-02-11T00:38:17.379Z,17.21
2023-02-11T00:38:31.357Z,17.22
2023-02-11T00:38:45.384Z,17.23
2023-02-11T00:38:59.382Z,17.22
2023-02-11T00:39:13.381Z,17.23
2023-02-11T00:39:27.375Z,17.23
2023-02-11T00:39:55.386Z,17.23
2023-02-11T00:40:09.380Z,17.22
2023-02-11T00:40:23.386Z,17.23
2023-02-11T00:40:37.375Z,17.22
2023-02-11T00:40:51.371Z,17.23
2023-02-11T00:41:05.360Z,17.21
2023-02-11T00:41:19.396Z,17.22
2023-02-11T00:41:33.393Z,17.22
2023-02-11T00:41:47.424Z,17.22
2023-02-11T00:42:01.414Z,17.22
2023-02-11T00:42:15.411Z,17.23
2023-02-11T00:42:29.408Z,17.21
2023-02-11T00:42:43.391Z,17.22
2023-02-11T00:42:57.397Z,17.21
2023-02-11T00:43:11.393Z,17.21
2023-02-11T00:43:25.418Z,17.21
2023-02-11T00:43:39.413Z,17.22
2023-02-11T00:43:53.421Z,17.21
2023-02-11T00:44:07.414Z,17.22
2023-02-11T00:44:21.418Z,17.22
2023-02-11T00:44:35.436Z,17.22
2023-02-11T00:44:49.449Z,17.21
2023-02-11T00:45:03.447Z,17.20
2023-02-11T00:45:17.464Z,17.21
2023-02-11T00:45:31.461Z,17.21
2023-02-11T00:45:45.533Z,17.21
2023-02-11T00:45:59.573Z,17.21
2023-02-11T00:46:13.590Z,17.21
2023-02-11T00:46:27.727Z,17.22
2023-02-11T00:46:41.807Z,17.22
2023-02-11T00:46:55.815Z,17.21
2023-02-11T00:47:09.826Z,17.21
2023-02-11T00:47:23.833Z,17.22
2023-02-11T00:47:37.825Z,17.22
2023-02-11T00:48:05.813Z,17.22
2023-02-11T00:48:19.808Z,17.21
2023-02-11T00:48:33.820Z,17.20
2023-02-11T00:48:47.822Z,17.20
2023-02-11T00:49:01.819Z,17.21
2023-02-11T00:49:15.816Z,17.22
2023-02-11T00:49:29.800Z,17.21
2023-02-11T00:49:43.811Z,17.21
2023-02-11T00:49:57.804Z,17.21
2023-02-11T00:50:11.800Z,17.21
2023-02-11T00:50:25.788Z,17.22
2023-02-11T00:50:39.787Z,17.20
2023-02-11T00:50:53.784Z,17.20
2023-02-11T00:51:07.779Z,17.21
2023-02-11T00:51:21.809Z,17.20
2023-02-11T00:51:35.800Z,17.21
2023-02-11T00:51:49.850Z,17.19
2023-02-11T00:52:03.860Z,17.21
2023-02-11T00:52:17.855Z,17.20
2023-02-11T00:52:45.871Z,17.21
2023-02-11T00:52:59.865Z,17.19
2023-02-11T00:53:13.856Z,17.21
2023-02-11T00:53:27.857Z,17.21
2023-02-11T00:53:41.885Z,17.20
2023-02-11T00:53:55.910Z,17.19
2023-02-11T00:54:09.943Z,17.19
2023-02-11T00:54:23.940Z,17.19
2023-02-11T00:54:37.942Z,17.19
2023-02-11T00:54:51.941Z,17.17
2023-02-11T00:55:05.954Z,17.17
2023-02-11T00:55:19.940Z,17.18
2023-02-11T00:55:33.942Z,17.18
2023-02-11T00:55:48.369Z,17.19
2023-02-11T00:56:02.618Z,17.18
2023-02-11T00:56:16.625Z,17.17
2023-02-11T00:56:30.625Z,17.16
2023-02-11T00:56:44.606Z,17.17
2023-02-11T00:56:58.603Z,17.17
2023-02-11T00:57:26.574Z,17.17
2023-02-11T00:57:40.582Z,17.17
2023-02-11T00:57:54.600Z,17.16
2023-02-11T00:58:08.590Z,17.16
2023-02-11T00:58:22.580Z,17.16
2023-02-11T00:58:36.590Z,17.17
2023-02-11T00:58:50.590Z,17.16
2023-02-11T00:59:04.590Z,17.16
2023-02-11T00:59:18.583Z,17.16
2023-02-11T00:59:32.580Z,17.16
2023-02-11T00:59:46.573Z,17.16
2023-02-11T01:00:00.572Z,17.16
2023-02-11T01:00:14.567Z,17.15
2023-02-11T01:00:28.565Z,17.16
2023-02-11T01:00:42.573Z,17.17
2023-02-11T01:00:56.610Z,17.17
2023-02-11T01:01:10.713Z,17.17
2023-02-11T01:01:24.850Z,17.16
2023-02-11T01:01:39.022Z,17.16
2023-02-11T01:01:53.049Z,17.16
2023-02-11T01:02:07.042Z,17.16
2023-02-11T01:02:21.031Z,17.17
2023-02-11T01:02:35.031Z,17.16
2023-02-11T01:02:49.049Z,17.16
2023-02-11T01:03:03.060Z,17.17
2023-02-11T01:03:17.072Z,17.16
2023-02-11T01:03:31.075Z,17.17
2023-02-11T01:03:45.081Z,17.17
2023-02-11T01:03:59.084Z,17.16
2023-02-11T01:04:13.076Z,17.16
2023-02-11T01:04:27.067Z,17.17
2023-02-11T01:04:41.065Z,17.17
2023-02-11T01:04:55.123Z,17.17
2023-02-11T01:05:09.208Z,17.17
2023-02-11T01:05:23.332Z,17.15
2023-02-11T01:05:37.353Z,17.16
2023-02-11T01:05:51.686Z,17.16
2023-02-11T01:06:05.843Z,17.16
2023-02-11T01:06:19.845Z,17.15
2023-02-11T01:06:33.840Z,17.16
2023-02-11T01:06:47.832Z,17.15
2023-02-11T01:07:01.834Z,17.15
2023-02-11T01:07:15.832Z,17.14
2023-02-11T01:07:29.835Z,17.15
2023-02-11T01:07:43.829Z,17.15
2023-02-11T01:07:57.825Z,17.15
2023-02-11T01:08:11.826Z,17.16
2023-02-11T01:08:25.814Z,17.15
2023-02-11T01:08:39.813Z,17.15
2023-02-11T01:08:53.783Z,17.16
2023-02-11T01:09:07.766Z,17.15
2023-02-11T01:09:21.752Z,17.14
2023-02-11T01:09:35.744Z,17.14
2023-02-11T01:09:49.723Z,17.15
2023-02-11T01:10:03.723Z,17.14
2023-02-11T01:10:17.718Z,17.15
2023-02-11T01:10:45.679Z,17.15
2023-02-11T01:10:59.709Z,17.15
2023-02-11T01:11:13.698Z,17.14
2023-02-11T01:11:27.730Z,17.15
2023-02-11T01:11:41.732Z,17.15
2023-02-11T01:11:55.759Z,17.16
2023-02-11T01:12:09.754Z,17.14
2023-02-11T01:12:23.743Z,17.15
2023-02-11T01:12:37.742Z,17.15
2023-02-11T01:12:51.733Z,17.15
2023-02-11T01:13:05.726Z,17.15
2023-02-11T01:13:19.723Z,17.14
2023-02-11T01:13:33.712Z,17.14
2023-02-11T01:13:47.761Z,17.14
2023-02-11T01:14:01.780Z,17.14
2023-02-11T01:14:15.771Z,17.13
2023-02-11T01:14:29.770Z,17.15
2023-02-11T01:14:43.770Z,17.13
2023-02-11T01:14:57.780Z,17.13
2023-02-11T01:15:25.768Z,17.13
2023-02-11T01:15:39.853Z,17.13
2023-02-11T01:15:54.186Z,17.13
2023-02-11T01:16:08.477Z,17.14
2023-02-11T01:16:22.638Z,17.12
2023-02-11T01:16:36.716Z,17.13
2023-02-11T01:16:50.720Z,17.13
2023-02-11T01:17:04.719Z,17.13
2023-02-11T01:17:18.707Z,17.13
2023-02-11T01:17:32.710Z,17.14
2023-02-11T01:17:46.725Z,17.14
2023-02-11T01:18:00.744Z,17.13
2023-02-11T01:18:14.768Z,17.13
2023-02-11T01:18:28.755Z,17.14
2023-02-11T01:18:42.751Z,17.13
2023-02-11T01:18:56.739Z,17.12
2023-02-11T01:19:10.729Z,17.11
2023-02-11T01:19:24.720Z,17.11
2023-02-11T01:19:38.717Z,17.11
2023-02-11T01:20:06.717Z,17.12
2023-02-11T01:20:20.712Z,17.13
2023-02-11T01:20:34.707Z,17.12
2023-02-11T01:20:48.691Z,17.12
2023-02-11T01:21:02.684Z,17.11
2023-02-11T01:21:16.661Z,17.12
2023-02-11T01:21:30.671Z,17.12
2023-02-11T01:21:44.669Z,17.11
2023-02-11T01:21:58.665Z,17.11
2023-02-11T01:22:12.672Z,17.10
2023-02-11T01:22:26.660Z,17.09
2023-02-11T01:22:40.650Z,17.10
2023-02-11T01:22:54.643Z,17.10
2023-02-11T01:23:08.645Z,17.10
2023-02-11T01:23:36.612Z,17.10
2023-02-11T01:23:50.605Z,17.11
2023-02-11T01:24:04.597Z,17.12
2023-02-11T01:24:18.590Z,17.11
2023-02-11T01:24:32.574Z,17.10
2023-02-11T01:24:46.564Z,17.10
2023-02-11T01:25:00.557Z,17.10
2023-02-11T01:25:14.567Z,17.09
2023-02-11T01:25:28.548Z,17.11
2023-02-11T01:25:42.533Z,17.10
2023-02-11T01:25:56.523Z,17.10
2023-02-11T01:26:10.514Z,17.10
2023-02-11T01:26:24.515Z,17.10
2023-02-11T01:26:38.497Z,17.10
2023-02-11T01:26:52.494Z,17.10
2023-02-11T01:27:06.474Z,17.10
2023-02-11T01:27:20.473Z,17.09
2023-02-11T01:27:34.467Z,17.10
2023-02-11T01:27:48.484Z,17.09
2023-02-11T01:28:16.487Z,17.10
2023-02-11T01:28:30.609Z,17.10
2023-02-11T01:28:44.642Z,17.09
2023-02-11T01:28:58.662Z,17.09
2023-02-11T01:29:12.664Z,17.10
2023-02-11T01:29:26.666Z,17.09
2023-02-11T01:29:40.671Z,17.09
2023-02-11T01:29:54.673Z,17.09
2023-02-11T01:30:08.659Z,17.09
2023-02-11T01:30:22.642Z,17.10
2023-02-11T01:30:36.639Z,17.09
2023-02-11T01:30:50.664Z,17.09
2023-02-11T01:31:04.788Z,17.08
2023-02-11T01:31:18.919Z,17.08
2023-02-11T01:31:33.068Z,17.08
2023-02-11T01:31:47.181Z,17.08
2023-02-11T01:32:01.288Z,17.08
2023-02-11T01:32:15.432Z,17.08
2023-02-11T01:32:29.446Z,17.08
2023-02-11T01:32:43.445Z,17.08
2023-02-11T01:32:57.439Z,17.08
2023-02-11T01:33:25.420Z,17.06
2023-02-11T01:33:39.402Z,17.06
2023-02-11T01:33:53.412Z,17.07
2023-02-11T01:34:07.408Z,17.07
2023-02-11T01:34:21.412Z,17.07
2023-02-11T01:34:35.392Z,17.07
2023-02-11T01:34:49.389Z,17.06
2023-02-11T01:35:03.376Z,17.08
2023-02-11T01:35:17.374Z,17.05
2023-02-11T01:35:31.370Z,17.07
2023-02-11T01:35:45.375Z,17.06
2023-02-11T01:35:59.383Z,17.06
2023-02-11T01:36:13.406Z,17.05
2023-02-11T01:36:27.404Z,17.04
2023-02-11T01:36:41.408Z,17.07
2023-02-11T01:36:55.397Z,17.06
2023-02-11T01:37:09.400Z,17.07
2023-02-11T01:37:23.385Z,17.07
2023-02-11T01:37:37.385Z,17.07
2023-02-11T01:38:05.360Z,17.07
2023-02-11T01:38:19.351Z,17.06
2023-02-11T01:38:33.343Z,17.06
2023-02-11T01:38:47.357Z,17.06
2023-02-11T01:39:01.345Z,17.06
2023-02-11T01:39:15.336Z,17.06
2023-02-11T01:39:29.327Z,17.05
2023-02-11T01:39:43.312Z,17.06
2023-02-11T01:39:57.304Z,17.06
2023-02-11T01:40:11.297Z,17.04
2023-02-11T01:40:25.341Z,17.05
2023-02-11T01:40:39.331Z,17.06
2023-02-11T01:40:53.320Z,17.06
2023-02-11T01:41:07.364Z,17.06
2023-02-11T01:41:21.375Z,17.06
2023-02-11T01:41:35.362Z,17.06
2023-02-11T01:41:49.346Z,17.06
2023-02-11T01:42:03.334Z,17.06
2023-02-11T01:42:17.342Z,17.06
2023-02-11T01:42:45.319Z,17.06
2023-02-11T01:42:59.318Z,17.06
2023-02-11T01:43:13.331Z,17.07
2023-02-11T01:43:27.330Z,17.06
2023-02-11T01:43:41.328Z,17.06
2023-02-11T01:43:55.338Z,17.06
2023-02-11T01:44:09.357Z,17.05
2023-02-11T01:44:23.351Z,17.07
2023-02-11T01:44:59.479Z,16.83
2023-02-11T01:45:13.468Z,17.03
2023-02-11T01:45:27.468Z,17.04
2023-02-11T01:45:41.449Z,17.05
2023-02-11T01:45:55.450Z,17.04
2023-02-11T01:46:09.484Z,17.04
2023-02-11T01:46:23.524Z,17.05
2023-02-11T01:46:37.662Z,17.05
2023-02-11T01:46:51.692Z,17.04
2023-02-11T01:47:05.725Z,17.04
2023-02-11T01:47:19.729Z,17.05
2023-02-11T01:47:33.730Z,17.04
2023-02-11T01:47:47.733Z,17.04
2023-02-11T01:48:01.723Z,17.04
2023-02-11T01:48:15.733Z,17.04
2023-02-11T01:48:29.743Z,17.04
2023-02-11T01:48:43.735Z,17.04
2023-02-11T01:48:57.798Z,17.05
2023-02-11T01:49:11.889Z,17.04
2023-02-11T01:49:25.959Z,17.04
2023-02-11T01:49:40.012Z,17.04
2023-02-11T01:49:54.012Z,17.05
2023-02-11T01:50:08.003Z,17.04
2023-02-11T01:50:22.004Z,17.05
2023-02-11T01:50:36.000Z,17.04
2023-02-11T01:50:49.997Z,17.04
2023-02-11T01:51:04.011Z,17.04
2023-02-11T01:51:18.013Z,17.04
2023-02-11T01:51:32.001Z,17.05
2023-02-11T01:51:46.004Z,17.04
2023-02-11T01:52:00.009Z,17.03
2023-02-11T01:52:14.003Z,17.04
2023-02-11T01:52:28.007Z,17.05
2023-02-11T01:52:41.995Z,17.05
2023-02-11T01:52:55.998Z,17.05
2023-02-11T01:53:10.003Z,17.04
2023-02-11T01:53:24.000Z,17.04
2023-02-11T01:53:38.006Z,17.03
2023-02-11T01:54:06.017Z,17.04
2023-02-11T01:54:20.021Z,17.03
2023-02-11T01:54:34.004Z,17.03
2023-02-11T01:54:48.007Z,17.03
2023-02-11T01:55:02.000Z,17.02
2023-02-11T01:55:15.994Z,17.03
2023-02-11T01:55:29.988Z,17.03
2023-02-11T01:55:43.979Z,17.02
2023-02-11T01:55:57.962Z,17.02
2023-02-11T01:56:11.978Z,17.03
2023-02-11T01:56:25.976Z,17.02
2023-02-11T01:56:39.959Z,17.03
2023-02-11T01:56:53.955Z,17.03
2023-02-11T01:57:07.937Z,17.02
2023-02-11T01:57:35.918Z,17.02
2023-02-11T01:57:49.919Z,17.02
2023-02-11T01:58:03.912Z,17.02
2023-02-11T01:58:17.924Z,17.03
2023-02-11T01:58:31.913Z,17.03
2023-02-11T01:58:45.925Z,17.03
2023-02-11T01:58:59.914Z,17.02
2023-02-11T01:59:13.935Z,17.02
2023-02-11T01:59:27.928Z,17.02
2023-02-11T01:59:41.934Z,17.02
2023-02-11T01:59:55.918Z,17.02
2023-02-11T02:00:09.912Z,17.02
2023-02-11T02:00:23.902Z,17.03
2023-02-11T02:00:37.916Z,17.03
2023-02-11T02:00:51.898Z,17.03
2023-02-11T02:01:05.938Z,17.03
2023-02-11T02:01:19.947Z,17.03
2023-02-11T02:01:34.032Z,17.03
2023-02-11T02:01:48.089Z,17.03
2023-02-11T02:02:02.885Z,17.03
2023-02-11T02:02:16.888Z,17.03
2023-02-11T02:02:44.859Z,17.02
2023-02-11T02:02:58.853Z,17.03
2023-02-11T02:03:12.942Z,17.03
2023-02-11T02:03:26.961Z,17.03
2023-02-11T02:03:41.088Z,17.03
2023-02-11T02:03:55.177Z,17.02
2023-02-11T02:04:09.182Z,17.03
2023-02-11T02:04:23.174Z,17.00
2023-02-11T02:04:37.188Z,17.01
2023-02-11T02:04:51.173Z,17.01
2023-02-11T02:05:05.179Z,17.02
2023-02-11T02:05:19.163Z,17.01
2023-02-11T02:05:33.167Z,17.02
2023-02-11T02:05:47.201Z,17.01
2023-02-11T02:06:01.231Z,17.01
2023-02-11T02:06:15.213Z,17.01
2023-02-11T02:06:29.242Z,17.01
2023-02-11T02:06:43.234Z,17.02
2023-02-11T02:06:57.229Z,17.03
2023-02-11T02:07:25.205Z,17.03
2023-02-11T02:07:39.193Z,17.02
2023-02-11T02:07:53.188Z,17.01
2023-02-11T02:08:07.178Z,17.02
2023-02-11T02:08:21.178Z,17.02
2023-02-11T02:08:35.180Z,17.02
2023-02-11T02:08:49.171Z,17.02
2023-02-11T02:09:03.170Z,17.01
2023-02-11T02:09:17.153Z,17.02
2023-02-11T02:09:31.150Z,17.02
2023-02-11T02:09:45.137Z,17.01
2023-02-11T02:09:59.128Z,17.01
2023-02-11T02:10:13.123Z,17.01
2023-02-11T02:10:27.115Z,17.01
2023-02-11T02:10:41.101Z,17.02
2023-02-11T02:10:55.121Z,17.01
2023-02-11T02:11:09.131Z,17.00
2023-02-11T02:11:23.125Z,17.01
2023-02-11T02:11:37.115Z,17.01
2023-02-11T02:12:05.089Z,17.01
2023-02-11T02:12:19.078Z,17.01
2023-02-11T02:12:33.052Z,17.01
2023-02-11T02:12:47.064Z,17.00
2023-02-11T02:13:01.050Z,17.00
2023-02-11T02:13:15.052Z,17.00
2023-02-11T02:13:29.036Z,17.00
2023-02-11T02:13:43.025Z,16.99
2023-02-11T02:13:57.013Z,17.00
2023-02-11T02:14:11.009Z,16.98
2023-02-11T02:14:25.021Z,16.99
2023-02-11T02:14:39.011Z,16.99
2023-02-11T02:14:53.009Z,16.98
2023-02-11T02:15:06.998Z,16.97
2023-02-11T02:15:20.997Z,16.98
2023-02-11T02:15:35.002Z,16.98
2023-02-11T02:15:49.639Z,16.99
2023-02-11T02:16:03.868Z,16.97
2023-02-11T02:16:17.989Z,16.98
2023-02-11T02:16:46.000Z,16.97
2023-02-11T02:17:00.019Z,16.98
2023-02-11T02:17:14.031Z,16.98
2023-02-11T02:17:28.020Z,16.98
2023-02-11T02:17:42.012Z,16.97
2023-02-11T02:17:56.017Z,16.98
2023-02-11T02:18:10.001Z,16.99
2023-02-11T02:18:23.992Z,16.98
2023-02-11T02:18:37.990Z,16.98
2023-02-11T02:18:51.998Z,16.96
2023-02-11T02:19:05.992Z,16.96
2023-02-11T02:19:20.003Z,16.98
2023-02-11T02:19:33.990Z,16.97
2023-02-11T02:19:47.989Z,16.97
2023-02-11T02:20:15.959Z,16.98
2023-02-11T02:20:29.943Z,16.97
2023-02-11T02:20:43.939Z,16.97
2023-02-11T02:20:57.914Z,16.97
2023-02-11T02:21:11.906Z,16.97
2023-02-11T02:21:25.899Z,16.97
2023-02-11T02:21:39.901Z,16.97
2023-02-11T02:21:53.888Z,16.97
2023-02-11T02:22:07.893Z,16.96
2023-02-11T02:22:21.886Z,16.96
2023-02-11T02:22:35.912Z,16.97
2023-02-11T02:22:49.932Z,16.96
2023-02-11T02:23:03.939Z,16.96
2023-02-11T02:23:17.910Z,16.97
2023-02-11T02:23:31.910Z,16.97
2023-02-11T02:23:45.899Z,16.97
2023-02-11T02:23:59.904Z,16.97
2023-02-11T02:24:14.369Z,16.96
2023-02-11T02:24:28.377Z,16.97
2023-02-11T02:24:56.328Z,16.98
2023-02-11T02:25:10.314Z,16.97
2023-02-11T02:25:24.335Z,16.97
2023-02-11T02:25:38.335Z,16.97
2023-02-11T02:25:52.516Z,16.97
2023-02-11T02:26:06.546Z,16.96
2023-02-11T02:26:20.537Z,16.96
2023-02-11T02:26:34.516Z,16.96
2023-02-11T02:26:48.523Z,16.96
2023-02-11T02:27:02.509Z,16.96
2023-02-11T02:27:16.501Z,16.97
2023-02-11T02:27:30.493Z,16.96
2023-02-11T02:27:44.495Z,16.97
2023-02-11T02:27:58.587Z,16.97
2023-02-11T02:28:12.721Z,16.97
2023-02-11T02:28:26.776Z,16.95
2023-02-11T02:28:40.773Z,16.96
2023-02-11T02:28:54.781Z,16.96
2023-02-11T02:29:08.778Z,16.95
2023-02-11T02:29:22.773Z,16.95
2023-02-11T02:29:36.794Z,16.97
2023-02-11T02:30:04.782Z,16.95
2023-02-11T02:30:18.754Z,16.96
2023-02-11T02:30:32.808Z,16.95
2023-02-11T02:30:46.900Z,16.97
2023-02-11T02:31:01.109Z,16.96
2023-02-11T02:31:15.273Z,16.95
2023-02-11T02:31:29.311Z,16.97
2023-02-11T02:31:43.490Z,16.95
2023-02-11T02:31:57.543Z,16.95
2023-02-11T02:32:11.544Z,16.96
2023-02-11T02:32:25.570Z,16.95
2023-02-11T02:32:39.597Z,16.95
2023-02-11T02:32:53.590Z,16.95
2023-02-11T02:33:21.706Z,16.95
2023-02-11T02:33:23.121Z,16.96
2023-02-11T02:33:34.679Z,16.95
2023-02-11T02:33:48.668Z,16.94
2023-02-11T02:34:16.635Z,16.95
2023-02-11T02:34:30.716Z,16.94
2023-02-11T02:34:44.719Z,16.94
2023-02-11T02:34:58.754Z,16.95
2023-02-11T02:35:12.772Z,16.96
2023-02-11T02:35:26.772Z,16.95
2023-02-11T02:35:40.772Z,16.95
2023-02-11T02:35:54.770Z,16.95
2023-02-11T02:36:08.772Z,16.95
2023-02-11T02:36:22.766Z,16.94
2023-02-11T02:36:36.753Z,16.94
2023-02-11T02:36:50.740Z,16.95
2023-02-11T02:37:04.717Z,16.94
2023-02-11T02:37:18.708Z,16.94
2023-02-11T02:37:46.693Z,16.94
2023-02-11T02:38:00.684Z,16.93
2023-02-11T02:38:14.681Z,16.93
2023-02-11T02:38:28.678Z,16.94
2023-02-11T02:38:42.679Z,16.93
2023-02-11T02:38:56.675Z,16.93
2023-02-11T02:39:10.691Z,16.94
2023-02-11T02:39:24.701Z,16.94
2023-02-11T02:39:38.720Z,16.94
2023-02-11T02:39:52.726Z,16.93
2023-02-11T02:40:06.725Z,16.93
2023-02-11T02:40:20.714Z,16.93
2023-02-11T02:40:34.713Z,16.93
2023-02-11T02:40:48.695Z,16.93
2023-02-11T02:41:02.689Z,16.93
2023-02-11T02:41:16.713Z,16.93
2023-02-11T02:41:30.715Z,16.93
2023-02-11T02:41:44.714Z,16.91
2023-02-11T02:41:58.720Z,16.92
2023-02-11T02:42:26.696Z,16.93
2023-02-11T02:42:40.708Z,16.91
2023-02-11T02:42:54.710Z,16.91
2023-02-11T02:43:08.694Z,16.92
2023-02-11T02:43:22.691Z,16.91
2023-02-11T02:43:36.732Z,16.91
2023-02-11T02:43:50.729Z,16.91
2023-02-11T02:44:04.720Z,16.91
2023-02-11T02:44:18.725Z,16.92
2023-02-11T02:44:32.717Z,16.90
2023-02-11T02:44:46.721Z,16.91
2023-02-11T02:45:00.714Z,16.91
2023-02-11T02:45:14.702Z,16.92
2023-02-11T02:45:28.722Z,16.91
2023-02-11T02:45:42.704Z,16.91
2023-02-11T02:45:56.700Z,16.91
2023-02-11T02:46:10.719Z,16.91
2023-02-11T02:46:24.759Z,16.91
2023-02-11T02:46:38.791Z,16.91
2023-02-11T02:46:52.848Z,16.91
2023-02-11T02:47:06.844Z,16.91
2023-02-11T02:47:34.820Z,16.91
2023-02-11T02:47:48.829Z,16.92
2023-02-11T02:48:02.819Z,16.92
2023-02-11T02:48:16.818Z,16.91
2023-02-11T02:48:30.820Z,16.91
2023-02-11T02:48:44.842Z,16.92
2023-02-11T02:48:58.864Z,16.92
2023-02-11T02:49:12.871Z,16.91
2023-02-11T02:49:26.859Z,16.91
2023-02-11T02:49:40.860Z,16.91
2023-02-11T02:49:54.846Z,16.91
2023-02-11T02:50:08.930Z,16.91
2023-02-11T02:50:22.986Z,16.90
2023-02-11T02:50:36.995Z,16.90
2023-02-11T02:50:50.999Z,16.91
2023-02-11T02:51:04.996Z,16.92
2023-02-11T02:51:19.007Z,16.90
2023-02-11T02:51:33.014Z,16.90
2023-02-11T02:51:47.032Z,16.90
2023-02-11T02:52:15.014Z,16.89
2023-02-11T02:52:29.008Z,16.90
2023-02-11T02:52:42.989Z,16.89
2023-02-11T02:52:56.978Z,16.89
2023-02-11T02:53:10.964Z,16.89
2023-02-11T02:53:24.962Z,16.90
2023-02-11T02:53:38.954Z,16.90
2023-02-11T02:53:52.957Z,16.91
2023-02-11T02:54:06.978Z,16.90
2023-02-11T02:54:20.975Z,16.89
2023-02-11T02:54:34.968Z,16.89
2023-02-11T02:54:48.953Z,16.90
2023-02-11T02:55:02.948Z,16.90
2023-02-11T02:55:16.973Z,16.89
2023-02-11T02:55:30.951Z,16.89
2023-02-11T02:55:44.945Z,16.89
2023-02-11T02:55:58.939Z,16.89
2023-02-11T02:56:12.946Z,16.89
2023-02-11T02:56:26.928Z,16.89
2023-02-11T02:56:54.924Z,16.89
2023-02-11T02:57:08.918Z,16.87
2023-02-11T02:57:22.913Z,16.89
2023-02-11T02:57:36.916Z,16.88
2023-02-11T02:57:50.903Z,16.88
2023-02-11T02:58:05.182Z,16.89
2023-02-11T02:58:19.169Z,16.89
2023-02-11T02:58:33.155Z,16.89
2023-02-11T02:58:47.435Z,16.89
2023-02-11T02:59:01.495Z,16.89
2023-02-11T02:59:15.510Z,16.89
2023-02-11T02:59:29.536Z,16.88
2023-02-11T02:59:43.521Z,16.87
2023-02-11T02:59:57.544Z,16.89
2023-02-11T03:00:11.532Z,16.89
2023-02-11T03:00:25.621Z,16.88
2023-02-11T03:00:39.728Z,16.89
2023-02-11T03:00:53.810Z,16.89
2023-02-11T03:01:07.883Z,16.90
2023-02-11T03:01:21.914Z,16.88
2023-02-11T03:01:35.911Z,16.88
2023-02-11T03:01:49.911Z,16.88
2023-02-11T03:02:03.911Z,16.88
2023-02-11T03:02:17.909Z,16.88
2023-02-11T03:02:31.891Z,16.88
2023-02-11T03:02:45.869Z,16.88
2023-02-11T03:02:59.900Z,16.88
2023-02-11T03:03:13.897Z,16.88
2023-02-11T03:03:27.964Z,16.88
2023-02-11T03:03:42.014Z,16.87
2023-02-11T03:03:56.170Z,16.88
2023-02-11T03:04:10.436Z,16.88
2023-02-11T03:04:24.442Z,16.89
2023-02-11T03:04:38.452Z,16.88
2023-02-11T03:05:06.435Z,16.88
2023-02-11T03:05:20.438Z,16.86
2023-02-11T03:05:34.431Z,16.87
2023-02-11T03:05:48.792Z,16.87
2023-02-11T03:06:02.896Z,16.87
2023-02-11T03:06:16.892Z,16.86
2023-02-11T03:06:30.872Z,16.87
2023-02-11T03:06:44.872Z,16.87
2023-02-11T03:06:58.870Z,16.88
2023-02-11T03:07:12.859Z,16.86
2023-02-11T03:07:26.868Z,16.88
2023-02-11T03:07:40.878Z,16.86
2023-02-11T03:07:54.868Z,16.87
2023-02-11T03:08:08.857Z,16.87
2023-02-11T03:08:22.854Z,16.86
2023-02-11T03:08:36.862Z,16.87
2023-02-11T03:08:50.869Z,16.87
2023-02-11T03:09:04.872Z,16.87
2023-02-11T03:09:18.851Z,16.87